Time;durP1;ratioP1;P1;durP2;ratioP2;P2;SDS_P1;SDS_P2;PMS_P1;PMS_P2;Temp;Humidity;BMP_temperature;BMP_pressure;BME280_temperature;BME280_humidity;BME280_pressure;Samples;Min_cycle;Max_cycle;Signal;HPM_P1;HPM_P2
2024/04/09 00:00:36;;;;;;;12.85;3.25;;;;;;;;;;5386698;26;20457;-67
2024/04/09 00:03:03;;;;;;;16.17;3.35;;;;;;;;;;5395656;26;20032;-67
2024/04/09 00:05:39;;;;;;;13.75;2.45;;;;;;;;;;5389270;26;20028;-67
2024/04/09 00:08:07;;;;;;;13.40;2.85;;;;;;;;;;5387379;26;20046;-68
2024/04/09 00:10:40;;;;;;;13.75;1.85;;;;;;;;;;5388638;26;20393;-67
2024/04/09 00:13:06;;;;;;;11.55;2.20;;;;;;;;;;5387900;26;20121;-67
2024/04/09 00:15:36;;;;;;;13.02;2.25;;;;;;;;;;5379821;26;20476;-68
2024/04/09 00:18:12;;;;;;;10.73;2.08;;;;;;;;;;5386463;26;20482;-68
2024/04/09 00:20:39;;;;;;;9.68;2.38;;;;;;;;;;5388617;26;20059;-67
2024/04/09 00:23:06;;;;;;;11.60;2.10;;;;;;;;;;5407064;26;20040;-67
2024/04/09 00:25:32;;;;;;;15.55;2.60;;;;;;;;;;5395062;26;20376;-67
2024/04/09 00:27:59;;;;;;;9.60;2.10;;;;;;;;;;5394648;26;20139;-68
2024/04/09 00:30:27;;;;;;;10.38;2.33;;;;;;;;;;5380678;26;20339;-67
2024/04/09 00:32:53;;;;;;;14.90;2.30;;;;;;;;;;5378260;26;20042;-68
2024/04/09 00:35:23;;;;;;;8.45;2.22;;;;;;;;;;5372605;26;20040;-67
2024/04/09 00:37:54;;;;;;;18.08;2.20;;;;;;;;;;5381730;26;20032;-67
2024/04/09 00:40:21;;;;;;;9.77;1.95;;;;;;;;;;5379650;26;20041;-67
2024/04/09 00:42:51;;;;;;;9.38;2.08;;;;;;;;;;5380928;26;20495;-67
2024/04/09 00:45:18;;;;;;;6.93;2.00;;;;;;;;;;5385501;26;20347;-68
2024/04/09 00:47:48;;;;;;;8.63;2.28;;;;;;;;;;5387294;26;20106;-67
2024/04/09 00:50:17;;;;;;;9.95;2.33;;;;;;;;;;5389746;26;20028;-68
2024/04/09 00:52:44;;;;;;;11.73;2.47;;;;;;;;;;5378710;26;20052;-67
2024/04/09 00:55:14;;;;;;;18.73;2.55;;;;;;;;;;5391260;26;20024;-67
2024/04/09 00:57:48;;;;;;;10.00;2.45;;;;;;;;;;5391045;26;20499;-68
2024/04/09 01:00:15;;;;;;;8.65;2.35;;;;;;;;;;5388579;26;20155;-68
2024/04/09 01:02:41;;;;;;;12.82;2.80;;;;;;;;;;5401149;26;20028;-68
2024/04/09 01:05:08;;;;;;;11.77;2.30;;;;;;;;;;5398453;26;20664;-68
2024/04/09 01:07:34;;;;;;;13.68;2.83;;;;;;;;;;5388570;26;20027;-68
2024/04/09 01:10:00;;;;;;;11.13;2.50;;;;;;;;;;5392527;26;20036;-68
2024/04/09 01:12:27;;;;;;;10.50;2.15;;;;;;;;;;5396741;26;20151;-68
2024/04/09 01:14:53;;;;;;;14.90;3.38;;;;;;;;;;5386627;26;20383;-67
2024/04/09 01:17:19;;;;;;;12.80;2.53;;;;;;;;;;5394232;26;20036;-68
2024/04/09 01:19:46;;;;;;;7.13;2.15;;;;;;;;;;5379726;26;20044;-68
2024/04/09 01:22:12;;;;;;;10.27;1.95;;;;;;;;;;5398020;26;20032;-68
2024/04/09 01:24:39;;;;;;;14.77;2.53;;;;;;;;;;5381025;26;20024;-68
2024/04/09 01:27:05;;;;;;;8.52;2.30;;;;;;;;;;5374142;26;20030;-68
2024/04/09 01:29:32;;;;;;;10.60;2.53;;;;;;;;;;5407662;26;20026;-67
2024/04/09 01:31:58;;;;;;;8.00;2.20;;;;;;;;;;5379781;26;20037;-68
2024/04/09 01:34:24;;;;;;;13.15;3.08;;;;;;;;;;5403795;26;20031;-68
2024/04/09 01:36:51;;;;;;;16.85;2.25;;;;;;;;;;5391289;26;20151;-68
2024/04/09 01:39:17;;;;;;;10.05;2.30;;;;;;;;;;5378973;26;20372;-68
2024/04/09 01:41:43;;;;;;;11.68;1.88;;;;;;;;;;5389108;26;20390;-68
2024/04/09 01:44:09;;;;;;;13.82;2.50;;;;;;;;;;5408176;26;20035;-68
2024/04/09 01:46:35;;;;;;;9.82;2.05;;;;;;;;;;5361214;26;20028;-67
2024/04/09 01:49:03;;;;;;;14.80;2.30;;;;;;;;;;5385384;26;20575;-67
2024/04/09 01:51:30;;;;;;;15.73;2.00;;;;;;;;;;5377525;26;20340;-68
2024/04/09 01:53:56;;;;;;;14.40;2.00;;;;;;;;;;5407609;26;20063;-68
2024/04/09 01:56:22;;;;;;;11.13;2.38;;;;;;;;;;5401628;26;20023;-67
2024/04/09 01:58:49;;;;;;;8.68;1.92;;;;;;;;;;5386463;26;20028;-68
2024/04/09 02:01:15;;;;;;;7.68;2.03;;;;;;;;;;5349749;26;20041;-67
2024/04/09 02:03:41;;;;;;;10.18;2.53;;;;;;;;;;5398697;26;20652;-68
2024/04/09 02:06:08;;;;;;;8.60;2.20;;;;;;;;;;5392635;26;20027;-68
2024/04/09 02:08:37;;;;;;;13.63;2.20;;;;;;;;;;5418086;26;20278;-67
2024/04/09 02:11:06;;;;;;;11.02;2.38;;;;;;;;;;5399533;26;20066;-68
2024/04/09 02:13:32;;;;;;;17.08;1.95;;;;;;;;;;5394212;26;20326;-68
2024/04/09 02:16:00;;;;;;;11.35;1.90;;;;;;;;;;5399168;26;20027;-68
2024/04/09 02:18:26;;;;;;;12.15;2.55;;;;;;;;;;5387171;26;20383;-67
2024/04/09 02:20:53;;;;;;;15.02;3.08;;;;;;;;;;5380172;26;20334;-68
2024/04/09 02:23:19;;;;;;;12.18;2.28;;;;;;;;;;5383686;26;20027;-67
2024/04/09 02:25:45;;;;;;;12.60;2.72;;;;;;;;;;5379908;26;20052;-68
2024/04/09 02:28:12;;;;;;;11.85;3.20;;;;;;;;;;5384066;26;20028;-68
2024/04/09 02:30:38;;;;;;;15.40;2.47;;;;;;;;;;5376881;26;20036;-68
2024/04/09 02:33:04;;;;;;;14.63;2.80;;;;;;;;;;5385152;26;20483;-68
2024/04/09 02:35:30;;;;;;;7.70;1.98;;;;;;;;;;5401438;26;20035;-68
2024/04/09 02:37:57;;;;;;;10.68;2.10;;;;;;;;;;5387086;26;20385;-68
2024/04/09 02:40:25;;;;;;;10.98;1.95;;;;;;;;;;5383802;26;20032;-68
2024/04/09 02:42:52;;;;;;;11.70;2.20;;;;;;;;;;5361669;26;20036;-68
2024/04/09 02:45:20;;;;;;;12.07;2.15;;;;;;;;;;5372980;26;20057;-67
2024/04/09 02:47:46;;;;;;;14.25;3.50;;;;;;;;;;5360632;26;20147;-68
2024/04/09 02:50:12;;;;;;;11.35;2.47;;;;;;;;;;5388984;26;20036;-67
2024/04/09 02:52:38;;;;;;;12.25;3.20;;;;;;;;;;5399261;26;20024;-68
2024/04/09 02:55:06;;;;;;;14.88;3.17;;;;;;;;;;5408827;26;20033;-68
2024/04/09 02:57:32;;;;;;;12.30;2.95;;;;;;;;;;5392659;26;20471;-67
2024/04/09 02:59:58;;;;;;;16.77;2.40;;;;;;;;;;5397276;26;20369;-66
2024/04/09 03:02:24;;;;;;;12.85;2.70;;;;;;;;;;5385680;26;20015;-66
2024/04/09 03:04:51;;;;;;;18.05;2.88;;;;;;;;;;5403831;26;20035;-67
2024/04/09 03:07:17;;;;;;;19.52;3.05;;;;;;;;;;5395048;26;20036;-66
2024/04/09 03:09:43;;;;;;;15.82;3.00;;;;;;;;;;5388748;26;20032;-67
2024/04/09 03:12:10;;;;;;;16.90;3.97;;;;;;;;;;5396458;26;20424;-67
2024/04/09 03:14:36;;;;;;;20.88;2.55;;;;;;;;;;5380482;26;20032;-67
2024/04/09 03:17:05;;;;;;;12.85;2.15;;;;;;;;;;5392174;26;20027;-67
2024/04/09 03:19:31;;;;;;;11.98;2.60;;;;;;;;;;5397765;26;20154;-67
2024/04/09 03:21:57;;;;;;;18.77;2.55;;;;;;;;;;5396000;26;20036;-67
2024/04/09 03:24:23;;;;;;;19.70;4.15;;;;;;;;;;5389985;26;20029;-67
2024/04/09 03:26:49;;;;;;;17.13;2.88;;;;;;;;;;5395876;26;20032;-67
2024/04/09 03:29:15;;;;;;;13.27;2.42;;;;;;;;;;5379716;26;20109;-66
2024/04/09 03:31:42;;;;;;;15.20;2.78;;;;;;;;;;5390326;26;20032;-68
2024/04/09 03:34:08;;;;;;;19.15;2.70;;;;;;;;;;5394272;26;20042;-68
2024/04/09 03:36:34;;;;;;;19.83;3.17;;;;;;;;;;5383116;26;22661;-68
2024/04/09 03:39:00;;;;;;;17.70;2.63;;;;;;;;;;5387991;26;20495;-69
2024/04/09 03:41:27;;;;;;;11.43;2.13;;;;;;;;;;5398765;26;20028;-68
2024/04/09 03:43:53;;;;;;;16.35;2.78;;;;;;;;;;5382442;26;20036;-68
2024/04/09 03:46:21;;;;;;;15.05;2.83;;;;;;;;;;5390930;26;20036;-68
2024/04/09 03:48:49;;;;;;;15.77;3.05;;;;;;;;;;5388364;26;20412;-68
2024/04/09 03:51:17;;;;;;;19.92;3.20;;;;;;;;;;5405384;26;20027;-68
2024/04/09 03:53:45;;;;;;;21.30;3.40;;;;;;;;;;5383631;26;20028;-68
2024/04/09 03:56:12;;;;;;;28.90;3.97;;;;;;;;;;5408197;26;20047;-68
2024/04/09 03:58:47;;;;;;;29.25;5.47;;;;;;;;;;5385734;26;20024;-67
2024/04/09 04:01:14;;;;;;;35.08;3.78;;;;;;;;;;5393710;26;20028;-67
2024/04/09 04:03:44;;;;;;;22.98;3.58;;;;;;;;;;5389542;26;20491;-68
2024/04/09 04:06:10;;;;;;;23.45;4.28;;;;;;;;;;5400401;26;20019;-67
2024/04/09 04:08:38;;;;;;;29.25;4.10;;;;;;;;;;5380693;26;20046;-68
2024/04/09 04:11:09;;;;;;;30.08;3.92;;;;;;;;;;5374113;26;20101;-68
2024/04/09 04:13:37;;;;;;;33.78;4.22;;;;;;;;;;5380172;26;20037;-68
2024/04/09 04:16:04;;;;;;;24.15;3.33;;;;;;;;;;5391705;26;20023;-69
2024/04/09 04:18:37;;;;;;;30.23;5.28;;;;;;;;;;5398786;26;20026;-68
2024/04/09 04:21:09;;;;;;;26.25;4.03;;;;;;;;;;5393736;26;20032;-67
2024/04/09 04:23:36;;;;;;;29.67;4.60;;;;;;;;;;5405788;26;20112;-68
2024/04/09 04:26:09;;;;;;;30.27;4.15;;;;;;;;;;5407466;26;20122;-68
2024/04/09 04:28:37;;;;;;;28.98;4.15;;;;;;;;;;5383337;26;20036;-68
2024/04/09 04:31:13;;;;;;;34.80;4.28;;;;;;;;;;5386737;26;20039;-68
2024/04/09 04:33:41;;;;;;;23.90;3.78;;;;;;;;;;5382619;26;20065;-68
2024/04/09 04:36:08;;;;;;;34.38;4.63;;;;;;;;;;5378416;26;20028;-65
2024/04/09 04:38:35;;;;;;;29.67;4.30;;;;;;;;;;5378630;26;20048;-64
2024/04/09 04:41:02;;;;;;;30.63;3.95;;;;;;;;;;5384593;26;20039;-67
2024/04/09 04:43:28;;;;;;;30.40;4.43;;;;;;;;;;5378283;26;20040;-65
2024/04/09 04:45:55;;;;;;;30.27;4.30;;;;;;;;;;5388691;26;20035;-65
2024/04/09 04:48:21;;;;;;;32.22;4.25;;;;;;;;;;5377466;26;20032;-65
2024/04/09 04:50:48;;;;;;;29.10;4.82;;;;;;;;;;5382804;26;20039;-68
2024/04/09 04:53:14;;;;;;;29.17;3.92;;;;;;;;;;5407545;26;20039;-66
2024/04/09 04:55:40;;;;;;;31.77;3.67;;;;;;;;;;5376769;26;20032;-65
2024/04/09 04:58:07;;;;;;;27.35;3.90;;;;;;;;;;5383620;26;20136;-65
2024/04/09 05:00:35;;;;;;;32.58;4.32;;;;;;;;;;5393573;26;20028;-64
2024/04/09 05:03:01;;;;;;;25.83;3.83;;;;;;;;;;5385637;26;20336;-66
2024/04/09 05:05:28;;;;;;;28.58;3.83;;;;;;;;;;5403682;26;20478;-64
2024/04/09 05:07:54;;;;;;;26.42;3.70;;;;;;;;;;5406056;26;20035;-64
2024/04/09 05:10:21;;;;;;;25.52;4.00;;;;;;;;;;5397762;26;20048;-64
2024/04/09 05:12:49;;;;;;;25.85;4.50;;;;;;;;;;5403056;26;20456;-65
2024/04/09 05:15:17;;;;;;;23.20;3.08;;;;;;;;;;5404071;26;20027;-64
2024/04/09 05:17:44;;;;;;;21.20;3.95;;;;;;;;;;5394685;26;20159;-66
2024/04/09 05:20:12;;;;;;;28.63;3.67;;;;;;;;;;5394234;26;20028;-64
2024/04/09 05:22:39;;;;;;;20.88;3.88;;;;;;;;;;5397673;26;20025;-65
2024/04/09 05:25:06;;;;;;;28.55;4.72;;;;;;;;;;5388406;26;20032;-64
2024/04/09 05:27:32;;;;;;;27.83;4.50;;;;;;;;;;5380338;26;20032;-65
2024/04/09 05:29:59;;;;;;;26.33;4.03;;;;;;;;;;5381439;26;20034;-65
2024/04/09 05:32:27;;;;;;;26.23;3.70;;;;;;;;;;5389634;26;20032;-64
2024/04/09 05:34:55;;;;;;;29.90;5.05;;;;;;;;;;5377472;26;20158;-65
2024/04/09 05:37:22;;;;;;;23.77;3.60;;;;;;;;;;5388561;26;20066;-65
2024/04/09 05:39:48;;;;;;;27.65;3.97;;;;;;;;;;5396438;26;20381;-64
2024/04/09 05:42:15;;;;;;;30.58;4.07;;;;;;;;;;5386056;26;20037;-65
2024/04/09 05:44:42;;;;;;;24.13;3.70;;;;;;;;;;5380853;26;20075;-65
2024/04/09 05:47:08;;;;;;;26.40;4.07;;;;;;;;;;5385279;26;20025;-65
2024/04/09 05:49:35;;;;;;;27.98;3.55;;;;;;;;;;5389779;26;20036;-65
2024/04/09 05:52:02;;;;;;;33.70;3.97;;;;;;;;;;5400788;26;20362;-64
2024/04/09 05:54:28;;;;;;;25.33;4.47;;;;;;;;;;5392976;26;20036;-64
2024/04/09 05:56:54;;;;;;;30.85;4.65;;;;;;;;;;5405355;26;20503;-65
2024/04/09 05:59:20;;;;;;;20.60;4.13;;;;;;;;;;5387339;26;20031;-65
2024/04/09 06:01:46;;;;;;;31.65;5.40;;;;;;;;;;5393777;26;20588;-65
2024/04/09 06:04:14;;;;;;;27.25;5.03;;;;;;;;;;5387173;26;20399;-64
2024/04/09 06:06:40;;;;;;;30.27;5.20;;;;;;;;;;5394268;26;20061;-64
2024/04/09 06:09:08;;;;;;;29.75;4.32;;;;;;;;;;5398665;26;20777;-64
2024/04/09 06:11:35;;;;;;;19.85;3.85;;;;;;;;;;5395753;26;20040;-64
2024/04/09 06:14:01;;;;;;;26.50;4.35;;;;;;;;;;5391504;26;20023;-65
2024/04/09 06:16:27;;;;;;;22.33;4.28;;;;;;;;;;5372955;26;20720;-63
2024/04/09 06:18:53;;;;;;;30.42;4.68;;;;;;;;;;5393495;26;20446;-64
2024/04/09 06:21:19;;;;;;;20.45;4.68;;;;;;;;;;5381004;26;20325;-65
2024/04/09 06:23:45;;;;;;;37.20;4.55;;;;;;;;;;5394179;26;20032;-64
2024/04/09 06:26:14;;;;;;;32.00;4.88;;;;;;;;;;5390518;26;20025;-63
2024/04/09 06:28:40;;;;;;;21.42;4.00;;;;;;;;;;5388751;26;20031;-63
2024/04/09 06:31:07;;;;;;;30.63;4.15;;;;;;;;;;5384077;26;20495;-64
2024/04/09 06:33:33;;;;;;;25.02;3.80;;;;;;;;;;5381773;26;20024;-65
2024/04/09 06:35:59;;;;;;;20.10;3.53;;;;;;;;;;5383433;26;20032;-64
2024/04/09 06:38:25;;;;;;;22.48;4.20;;;;;;;;;;5381136;26;20127;-64
2024/04/09 06:40:54;;;;;;;30.50;4.20;;;;;;;;;;5380327;26;20032;-64
2024/04/09 06:43:20;;;;;;;23.70;4.75;;;;;;;;;;5388169;26;20048;-64
2024/04/09 06:45:46;;;;;;;22.33;3.65;;;;;;;;;;5382084;26;20024;-64
2024/04/09 06:48:12;;;;;;;23.50;4.60;;;;;;;;;;5397249;26;20035;-65
2024/04/09 06:50:39;;;;;;;17.83;3.78;;;;;;;;;;5391935;26;20034;-64
2024/04/09 06:53:05;;;;;;;17.95;3.55;;;;;;;;;;5401663;26;20036;-64
2024/04/09 06:55:31;;;;;;;23.90;3.70;;;;;;;;;;5399008;26;20383;-65
2024/04/09 06:57:57;;;;;;;18.90;3.40;;;;;;;;;;5404069;26;20047;-66
2024/04/09 07:00:23;;;;;;;24.35;4.50;;;;;;;;;;5404816;26;20031;-64
2024/04/09 07:02:49;;;;;;;17.90;3.33;;;;;;;;;;5395202;26;20036;-63
2024/04/09 07:05:16;;;;;;;26.30;3.63;;;;;;;;;;5385765;26;20039;-65
2024/04/09 07:07:42;;;;;;;22.35;3.42;;;;;;;;;;5383325;26;20048;-64
2024/04/09 07:10:08;;;;;;;29.13;3.25;;;;;;;;;;5393640;26;20032;-64
2024/04/09 07:12:34;;;;;;;26.95;4.00;;;;;;;;;;5396834;26;20448;-64
2024/04/09 07:15:00;;;;;;;20.92;3.08;;;;;;;;;;5392638;26;20017;-64
2024/04/09 07:17:26;;;;;;;19.83;3.35;;;;;;;;;;5402637;26;20028;-64
2024/04/09 07:19:55;;;;;;;16.60;3.35;;;;;;;;;;5392534;26;20005;-64
2024/04/09 07:22:23;;;;;;;21.92;4.00;;;;;;;;;;5398489;26;20462;-65
2024/04/09 07:24:49;;;;;;;32.38;3.88;;;;;;;;;;5377979;26;20024;-64
2024/04/09 07:27:15;;;;;;;13.98;3.55;;;;;;;;;;5381939;26;20032;-64
2024/04/09 07:29:41;;;;;;;21.55;3.53;;;;;;;;;;5395665;26;20025;-65
2024/04/09 07:32:07;;;;;;;28.65;4.50;;;;;;;;;;5381861;26;20024;-64
2024/04/09 07:34:34;;;;;;;24.00;4.60;;;;;;;;;;5386150;26;20338;-64
2024/04/09 07:37:00;;;;;;;14.15;2.90;;;;;;;;;;5387719;26;20044;-64
2024/04/09 07:39:27;;;;;;;20.35;3.33;;;;;;;;;;5380058;26;20049;-65
2024/04/09 07:41:53;;;;;;;17.50;3.20;;;;;;;;;;5384333;26;20109;-64
2024/04/09 07:44:19;;;;;;;16.95;3.25;;;;;;;;;;5386046;26;20028;-64
2024/04/09 07:46:48;;;;;;;14.13;2.75;;;;;;;;;;5382346;26;20044;-65
2024/04/09 07:49:15;;;;;;;;;;;;;;;;;;5397471;26;20032;-65
2024/04/09 07:51:41;;;;;;;12.02;2.58;;;;;;;;;;5403071;26;20395;-65
2024/04/09 07:54:08;;;;;;;14.02;2.72;;;;;;;;;;5413246;26;20035;-65
2024/04/09 07:56:34;;;;;;;14.95;2.58;;;;;;;;;;5405649;26;20023;-65
2024/04/09 07:59:01;;;;;;;11.88;2.17;;;;;;;;;;5399014;26;20036;-65
2024/04/09 08:01:27;;;;;;;12.35;2.42;;;;;;;;;;5403299;26;20040;-65
2024/04/09 08:03:53;;;;;;;12.35;2.47;;;;;;;;;;5373837;26;20040;-65
2024/04/09 08:06:19;;;;;;;11.55;2.25;;;;;;;;;;5401687;26;20026;-65
2024/04/09 08:08:45;;;;;;;16.25;2.55;;;;;;;;;;5408459;26;20150;-64
2024/04/09 08:11:15;;;;;;;14.73;2.80;;;;;;;;;;5394962;26;20048;-64
2024/04/09 08:13:41;;;;;;;9.45;2.42;;;;;;;;;;5397809;26;20048;-66
2024/04/09 08:16:08;;;;;;;7.93;2.38;;;;;;;;;;5401112;26;20031;-64
2024/04/09 08:18:34;;;;;;;16.38;2.30;;;;;;;;;;5392030;26;20052;-65
2024/04/09 08:21:00;;;;;;;8.68;1.85;;;;;;;;;;5376672;26;20014;-64
2024/04/09 08:23:27;;;;;;;12.25;2.00;;;;;;;;;;5382438;26;20037;-64
2024/04/09 08:25:53;;;;;;;11.30;2.25;;;;;;;;;;5391440;26;20036;-64
2024/04/09 08:28:19;;;;;;;12.60;2.65;;;;;;;;;;5387506;26;20032;-64
2024/04/09 08:30:45;;;;;;;9.27;1.90;;;;;;;;;;5384313;26;20348;-64
2024/04/09 08:33:12;;;;;;;5.82;1.48;;;;;;;;;;5380774;26;20024;-65
2024/04/09 08:35:42;;;;;;;6.85;1.77;;;;;;;;;;5376011;26;20040;-64
2024/04/09 08:38:09;;;;;;;2.15;0.93;;;;;;;;;;5390069;26;20076;-64
2024/04/09 08:40:36;;;;;;;3.65;0.82;;;;;;;;;;5389245;26;20059;-64
2024/04/09 08:43:03;;;;;;;2.40;0.88;;;;;;;;;;5383849;26;20044;-64
2024/04/09 08:45:30;;;;;;;4.47;0.90;;;;;;;;;;5386808;26;20026;-64
2024/04/09 08:47:59;;;;;;;7.25;0.60;;;;;;;;;;5391001;26;20348;-64
2024/04/09 08:50:25;;;;;;;3.45;0.35;;;;;;;;;;5403761;26;20028;-64
2024/04/09 08:52:54;;;;;;;2.38;0.50;;;;;;;;;;5404318;26;20023;-64
2024/04/09 08:55:21;;;;;;;2.50;0.30;;;;;;;;;;5388332;26;20032;-64
2024/04/09 08:57:48;;;;;;;0.40;0.30;;;;;;;;;;5393712;26;20031;-63
2024/04/09 09:00:16;;;;;;;2.25;0.50;;;;;;;;;;5394070;26;20139;-64
2024/04/09 09:02:43;;;;;;;2.05;0.30;;;;;;;;;;5378911;26;20023;-63
2024/04/09 09:05:16;;;;;;;0.65;0.30;;;;;;;;;;5402947;26;20098;-65
2024/04/09 09:07:42;;;;;;;7.25;0.22;;;;;;;;;;5403677;26;20045;-65
2024/04/09 09:10:10;;;;;;;1.13;0.10;;;;;;;;;;5394819;26;20148;-65
2024/04/09 09:12:36;;;;;;;3.10;0.20;;;;;;;;;;5397015;26;20032;-64
2024/04/09 09:15:03;;;;;;;2.25;0.30;;;;;;;;;;5418282;26;20026;-64
2024/04/09 09:17:31;;;;;;;0.50;0.20;;;;;;;;;;5393490;26;20044;-64
2024/04/09 09:20:01;;;;;;;0.17;0.17;;;;;;;;;;5394317;26;20456;-64
2024/04/09 09:22:35;;;;;;;1.35;0.20;;;;;;;;;;5378466;26;20041;-64
2024/04/09 09:25:01;;;;;;;1.20;0.30;;;;;;;;;;5385596;26;20480;-65
2024/04/09 09:27:27;;;;;;;1.90;0.60;;;;;;;;;;5391145;26;20035;-64
2024/04/09 09:29:55;;;;;;;1.50;0.40;;;;;;;;;;5380015;26;20029;-64
2024/04/09 09:32:23;;;;;;;1.40;0.25;;;;;;;;;;5381854;26;20468;-64
2024/04/09 09:34:55;;;;;;;0.32;0.10;;;;;;;;;;5381922;26;20456;-64
2024/04/09 09:37:22;;;;;;;1.45;0.20;;;;;;;;;;5380270;26;20024;-64
2024/04/09 09:39:50;;;;;;;0.50;0.40;;;;;;;;;;5391676;26;20124;-64
2024/04/09 09:42:17;;;;;;;0.28;0.20;;;;;;;;;;5388029;26;20356;-64
2024/04/09 09:44:45;;;;;;;4.47;1.27;;;;;;;;;;5387903;26;20884;-65
2024/04/09 09:47:12;;;;;;;4.45;1.20;;;;;;;;;;5395202;26;20031;-64
2024/04/09 09:49:38;;;;;;;0.50;0.22;;;;;;;;;;5406687;26;20476;-64
2024/04/09 09:52:07;;;;;;;2.28;0.55;;;;;;;;;;5407995;26;20499;-64
2024/04/09 09:54:33;;;;;;;0.90;0.40;;;;;;;;;;5403466;26;20036;-64
2024/04/09 09:57:02;;;;;;;5.97;2.15;;;;;;;;;;5391561;26;20028;-65
2024/04/09 09:59:33;;;;;;;0.85;0.43;;;;;;;;;;5382413;26;20014;-65
2024/04/09 10:02:02;;;;;;;0.50;0.50;;;;;;;;;;5393261;26;20380;-64
2024/04/09 10:04:28;;;;;;;0.38;0.30;;;;;;;;;;5399828;26;20027;-65
2024/04/09 10:06:59;;;;;;;0.35;0.13;;;;;;;;;;5397335;26;20040;-64
2024/04/09 10:09:50;;;;;;;0.88;0.20;;;;;;;;;;5394414;26;20035;-65
2024/04/09 10:12:24;;;;;;;0.40;0.25;;;;;;;;;;5406912;26;20023;-64
2024/04/09 10:15:11;;;;;;;0.40;0.30;;;;;;;;;;5393246;26;20028;-64
2024/04/09 10:17:54;;;;;;;1.27;0.60;;;;;;;;;;5389158;26;20032;-64
2024/04/09 10:20:21;;;;;;;1.85;0.70;;;;;;;;;;5382283;26;20032;-64
2024/04/09 10:22:51;;;;;;;0.77;0.32;;;;;;;;;;5379806;26;20040;-63
2024/04/09 10:25:22;;;;;;;1.63;0.35;;;;;;;;;;5390076;26;20028;-64
2024/04/09 10:28:02;;;;;;;0.30;0.30;;;;;;;;;;5390060;26;20351;-64
2024/04/09 10:30:30;;;;;;;0.80;0.20;;;;;;;;;;5384245;26;20026;-64
2024/04/09 10:32:57;;;;;;;0.73;0.32;;;;;;;;;;5388261;26;20032;-64
2024/04/09 10:35:24;;;;;;;1.08;0.20;;;;;;;;;;5384523;26;20040;-64
2024/04/09 10:37:52;;;;;;;0.68;0.28;;;;;;;;;;5396148;26;20032;-64
2024/04/09 10:40:19;;;;;;;0.52;0.20;;;;;;;;;;5386901;26;20397;-64
2024/04/09 10:42:45;;;;;;;0.13;0.10;;;;;;;;;;5390419;26;20563;-64
2024/04/09 10:45:11;;;;;;;0.68;0.20;;;;;;;;;;5396845;26;20046;-64
2024/04/09 10:47:38;;;;;;;2.05;0.55;;;;;;;;;;5391275;26;20032;-64
2024/04/09 10:50:08;;;;;;;1.17;0.60;;;;;;;;;;5401244;26;20032;-64
2024/04/09 10:52:35;;;;;;;0.20;0.20;;;;;;;;;;5379653;26;20028;-64
2024/04/09 10:55:14;;;;;;;0.60;0.20;;;;;;;;;;5378878;26;20194;-63
2024/04/09 10:57:42;;;;;;;2.17;0.20;;;;;;;;;;5388320;26;20040;-65
2024/04/09 11:00:12;;;;;;;3.17;0.55;;;;;;;;;;5406040;26;20001;-65
2024/04/09 11:02:40;;;;;;;0.90;0.45;;;;;;;;;;5378776;26;20037;-65
2024/04/09 11:05:11;;;;;;;0.50;0.20;;;;;;;;;;5384237;26;20036;-65
2024/04/09 11:07:47;;;;;;;1.50;0.50;;;;;;;;;;5388024;26;20044;-64
2024/04/09 11:10:21;;;;;;;1.00;0.47;;;;;;;;;;5384628;26;20039;-65
2024/04/09 11:12:48;;;;;;;0.88;0.40;;;;;;;;;;5387954;26;20362;-65
2024/04/09 11:15:15;;;;;;;0.60;0.30;;;;;;;;;;5406926;26;20038;-65
2024/04/09 11:17:42;;;;;;;1.95;0.30;;;;;;;;;;5379677;26;20063;-64
2024/04/09 11:20:15;;;;;;;0.38;0.20;;;;;;;;;;5387727;26;20032;-66
2024/04/09 11:22:41;;;;;;;0.47;0.20;;;;;;;;;;5351658;26;20024;-67
2024/04/09 11:25:14;;;;;;;0.35;0.20;;;;;;;;;;5390715;26;20035;-66
2024/04/09 11:27:42;;;;;;;0.40;0.20;;;;;;;;;;5388542;26;20044;-66
2024/04/09 11:30:09;;;;;;;1.45;0.30;;;;;;;;;;5386071;26;20035;-65
2024/04/09 11:32:36;;;;;;;1.75;0.20;;;;;;;;;;5383333;26;20036;-65
2024/04/09 11:35:19;;;;;;;0.70;0.30;;;;;;;;;;5381268;26;20062;-66
2024/04/09 11:37:52;;;;;;;0.40;0.20;;;;;;;;;;5389431;26;20036;-67
2024/04/09 11:40:28;;;;;;;0.70;0.28;;;;;;;;;;5388910;26;20027;-66
2024/04/09 11:42:56;;;;;;;0.65;0.30;;;;;;;;;;5386793;26;20048;-65
2024/04/09 11:45:24;;;;;;;1.00;0.47;;;;;;;;;;5385609;26;20051;-68
2024/04/09 11:47:50;;;;;;;3.00;0.47;;;;;;;;;;5386797;26;20645;-67
2024/04/09 11:50:17;;;;;;;1.75;0.20;;;;;;;;;;5405096;26;20344;-66
2024/04/09 11:52:44;;;;;;;1.15;0.30;;;;;;;;;;5378377;26;20004;-67
2024/04/09 11:55:11;;;;;;;0.43;0.40;;;;;;;;;;5388542;26;20068;-68
2024/04/09 11:57:38;;;;;;;1.77;0.40;;;;;;;;;;5390528;26;20032;-67
2024/04/09 12:00:04;;;;;;;0.70;0.20;;;;;;;;;;5392023;26;20398;-67
2024/04/09 12:02:31;;;;;;;0.40;0.20;;;;;;;;;;5378332;26;20008;-66
2024/04/09 12:04:57;;;;;;;2.13;0.43;;;;;;;;;;5394636;26;20028;-66
2024/04/09 12:07:23;;;;;;;2.20;0.30;;;;;;;;;;5386003;26;20254;-66
2024/04/09 12:09:50;;;;;;;1.38;0.30;;;;;;;;;;5362940;26;20031;-67
2024/04/09 12:12:17;;;;;;;0.55;0.22;;;;;;;;;;5383754;26;20003;-65
2024/04/09 12:14:43;;;;;;;0.22;0.10;;;;;;;;;;5404829;26;20032;-67
2024/04/09 12:17:09;;;;;;;0.20;0.20;;;;;;;;;;5387813;26;20385;-66
2024/04/09 12:19:37;;;;;;;1.60;0.40;;;;;;;;;;5390173;26;20036;-65
2024/04/09 12:22:03;;;;;;;2.60;0.95;;;;;;;;;;5383523;26;20379;-68
2024/04/09 12:24:31;;;;;;;4.47;0.98;;;;;;;;;;5382786;26;20028;-68
2024/04/09 12:27:00;;;;;;;0.40;0.30;;;;;;;;;;5386257;26;20028;-65
2024/04/09 12:29:28;;;;;;;3.53;0.22;;;;;;;;;;5387038;26;20036;-65
2024/04/09 12:31:54;;;;;;;0.77;0.28;;;;;;;;;;5381905;26;20040;-66
2024/04/09 12:34:22;;;;;;;0.40;0.10;;;;;;;;;;5382222;26;20056;-66
2024/04/09 12:36:48;;;;;;;0.80;0.20;;;;;;;;;;5396405;26;20036;-65
2024/04/09 12:39:15;;;;;;;4.57;0.20;;;;;;;;;;5396061;26;20035;-65
2024/04/09 12:41:41;;;;;;;0.20;0.10;;;;;;;;;;5386398;26;20040;-65
2024/04/09 12:44:07;;;;;;;0.40;0.20;;;;;;;;;;5394123;26;20394;-65
2024/04/09 12:46:33;;;;;;;0.80;0.40;;;;;;;;;;5388500;26;20386;-65
2024/04/09 12:48:59;;;;;;;0.73;0.30;;;;;;;;;;5381458;26;20063;-64
2024/04/09 12:51:26;;;;;;;1.73;0.17;;;;;;;;;;5388112;26;20035;-65
2024/04/09 12:53:52;;;;;;;1.75;0.50;;;;;;;;;;5377762;26;20337;-64
2024/04/09 12:56:21;;;;;;;0.90;0.35;;;;;;;;;;5389258;26;20027;-64
2024/04/09 12:58:47;;;;;;;2.83;0.30;;;;;;;;;;5380909;26;20028;-64
2024/04/09 13:01:15;;;;;;;0.70;0.55;;;;;;;;;;5380935;26;20004;-64
2024/04/09 13:03:42;;;;;;;0.50;0.45;;;;;;;;;;5394058;26;20048;-64
2024/04/09 13:06:09;;;;;;;0.40;0.40;;;;;;;;;;5392942;26;20375;-64
2024/04/09 13:08:35;;;;;;;2.10;0.20;;;;;;;;;;5394625;26;20036;-64
2024/04/09 13:11:01;;;;;;;2.05;0.30;;;;;;;;;;5399836;26;20040;-64
2024/04/09 13:13:28;;;;;;;0.22;0.20;;;;;;;;;;5385794;26;20106;-63
2024/04/09 13:15:54;;;;;;;2.92;0.40;;;;;;;;;;5385238;26;20032;-64
2024/04/09 13:18:20;;;;;;;1.20;0.30;;;;;;;;;;5399006;26;20039;-64
2024/04/09 13:20:46;;;;;;;0.50;0.30;;;;;;;;;;5387239;26;20039;-63
2024/04/09 13:23:12;;;;;;;0.35;0.20;;;;;;;;;;5393247;26;20032;-64
2024/04/09 13:25:38;;;;;;;1.75;0.40;;;;;;;;;;5394177;26;20040;-63
2024/04/09 13:28:05;;;;;;;0.40;0.20;;;;;;;;;;5389876;26;20379;-64
2024/04/09 13:30:31;;;;;;;0.95;0.35;;;;;;;;;;5385835;26;20026;-64
2024/04/09 13:32:57;;;;;;;0.25;0.20;;;;;;;;;;5408964;26;20387;-64
2024/04/09 13:35:23;;;;;;;0.43;0.30;;;;;;;;;;5390093;26;20020;-64
2024/04/09 13:37:49;;;;;;;0.30;0.30;;;;;;;;;;5388914;26;20487;-63
2024/04/09 13:40:15;;;;;;;0.43;0.38;;;;;;;;;;5408208;26;20028;-62
2024/04/09 13:42:46;;;;;;;0.55;0.40;;;;;;;;;;5402698;26;20035;-64
2024/04/09 13:45:12;;;;;;;1.02;0.40;;;;;;;;;;5397764;26;20031;-63
2024/04/09 13:47:38;;;;;;;0.30;0.30;;;;;;;;;;5399320;26;20028;-63
2024/04/09 13:50:05;;;;;;;1.95;0.30;;;;;;;;;;5405764;26;20024;-63
2024/04/09 13:52:32;;;;;;;1.23;0.40;;;;;;;;;;5405193;26;20024;-62
2024/04/09 13:54:59;;;;;;;1.38;0.25;;;;;;;;;;5393725;26;20032;-63
2024/04/09 13:57:26;;;;;;;1.15;0.30;;;;;;;;;;5396361;26;20040;-63
2024/04/09 13:59:52;;;;;;;1.23;0.30;;;;;;;;;;5382633;26;20028;-63
2024/04/09 14:02:19;;;;;;;0.43;0.22;;;;;;;;;;5408948;26;20659;-64
2024/04/09 14:04:45;;;;;;;1.00;0.20;;;;;;;;;;5382091;26;20497;-63
2024/04/09 14:07:12;;;;;;;1.25;0.30;;;;;;;;;;5399051;26;20032;-63
2024/04/09 14:09:38;;;;;;;0.38;0.20;;;;;;;;;;5401209;26;20040;-63
2024/04/09 14:12:05;;;;;;;0.30;0.20;;;;;;;;;;5397318;26;20032;-63
2024/04/09 14:14:34;;;;;;;0.22;0.20;;;;;;;;;;5398768;26;20379;-63
2024/04/09 14:17:01;;;;;;;0.85;0.50;;;;;;;;;;5381240;26;20028;-63
2024/04/09 14:19:27;;;;;;;0.77;0.30;;;;;;;;;;5384803;26;20032;-64
2024/04/09 14:21:53;;;;;;;2.83;0.75;;;;;;;;;;5397542;26;20040;-63
2024/04/09 14:24:21;;;;;;;1.45;0.40;;;;;;;;;;5387673;26;20028;-64
2024/04/09 14:26:47;;;;;;;1.15;0.32;;;;;;;;;;5393942;26;20027;-63
2024/04/09 14:29:13;;;;;;;0.47;0.30;;;;;;;;;;5382737;26;20386;-63
2024/04/09 14:31:39;;;;;;;0.40;0.28;;;;;;;;;;5381843;26;20028;-62
2024/04/09 14:34:06;;;;;;;0.60;0.30;;;;;;;;;;5392463;26;20028;-62
2024/04/09 14:36:33;;;;;;;0.45;0.45;;;;;;;;;;5386820;26;20032;-62